Time;durP1;ratioP1;P1;durP2;ratioP2;P2;SDS_P1;SDS_P2;PMS_P1;PMS_P2;Temp;Humidity;BMP_temperature;BMP_pressure;BME280_temperature;BME280_humidity;BME280_pressure;Samples;Min_cycle;Max_cycle;Signal;HPM_P1;HPM_P2
2022/03/14 00:00:51;;;;;;;108.22;53.28;;;;;;;;;;4997501;28;20034;-50
2022/03/14 00:03:17;;;;;;;79.63;37.30;;;;;;;;;;4997217;28;20022;-51
2022/03/14 00:05:44;;;;;;;68.70;32.75;;;;;;;;;;4996967;28;20022;-50
2022/03/14 00:08:11;;;;;;;49.83;26.17;;;;;;;;;;4996966;28;20529;-54
2022/03/14 00:10:37;;;;;;;52.53;26.77;;;;;;;;;;4997149;28;20034;-53
2022/03/14 00:13:04;;;;;;;55.70;29.58;;;;;;;;;;4997031;28;20018;-53
2022/03/14 00:15:33;;;;;;;71.00;36.38;;;;;;;;;;4997424;28;20025;-53
2022/03/14 00:18:04;;;;;;;71.97;35.28;;;;;;;;;;4996879;28;20026;-52
2022/03/14 00:20:30;;;;;;;89.23;45.27;;;;;;;;;;4996777;28;20035;-49
2022/03/14 00:22:59;;;;;;;117.28;58.65;;;;;;;;;;4997320;28;20030;-52
2022/03/14 00:25:26;;;;;;;125.65;62.47;;;;;;;;;;4997152;28;20035;-52
2022/03/14 00:27:54;;;;;;;142.45;71.00;;;;;;;;;;4996364;28;20085;-52
2022/03/14 00:30:20;;;;;;;142.82;71.25;;;;;;;;;;4996775;28;20034;-54
2022/03/14 00:32:47;;;;;;;128.65;61.45;;;;;;;;;;4996134;28;20165;-53
2022/03/14 00:35:13;;;;;;;118.50;57.38;;;;;;;;;;4996788;28;20053;-53
2022/03/14 00:37:39;;;;;;;110.85;52.50;;;;;;;;;;4996704;28;20035;-53
2022/03/14 00:40:07;;;;;;;116.45;56.60;;;;;;;;;;4996108;28;20030;-51
2022/03/14 00:42:35;;;;;;;118.57;57.22;;;;;;;;;;4996657;28;20090;-50
2022/03/14 00:45:01;;;;;;;112.50;53.83;;;;;;;;;;4996377;28;20022;-56
2022/03/14 00:47:28;;;;;;;122.00;58.17;;;;;;;;;;4996301;28;20024;-50
2022/03/14 00:49:55;;;;;;;148.57;60.70;;;;;;;;;;4996475;28;20113;-52
2022/03/14 00:52:21;;;;;;;133.57;59.47;;;;;;;;;;4996670;28;20022;-55
2022/03/14 00:54:48;;;;;;;87.95;39.92;;;;;;;;;;4996109;28;20099;-51
2022/03/14 00:57:14;;;;;;;78.72;40.38;;;;;;;;;;4996478;28;20093;-54
2022/03/14 00:59:41;;;;;;;76.78;37.78;;;;;;;;;;4996147;28;20026;-55
2022/03/14 01:02:08;;;;;;;60.35;30.77;;;;;;;;;;4995666;28;20125;-52
2022/03/14 01:04:34;;;;;;;64.63;32.70;;;;;;;;;;4995030;28;20052;-51
2022/03/14 01:07:02;;;;;;;71.13;36.05;;;;;;;;;;4996508;28;20030;-54
2022/03/14 01:09:28;;;;;;;71.50;36.03;;;;;;;;;;4995725;28;20494;-50
2022/03/14 01:11:55;;;;;;;68.78;35.60;;;;;;;;;;4995555;28;20037;-52
2022/03/14 01:14:22;;;;;;;67.97;36.58;;;;;;;;;;4996361;28;20083;-53
2022/03/14 01:16:48;;;;;;;67.43;35.13;;;;;;;;;;4995451;28;20379;-51
2022/03/14 01:19:18;;;;;;;55.60;30.40;;;;;;;;;;4995898;28;20124;-51
2022/03/14 01:21:44;;;;;;;70.05;36.47;;;;;;;;;;4995580;28;20487;-51
2022/03/14 01:24:10;;;;;;;70.72;35.47;;;;;;;;;;4995832;28;20558;-54
2022/03/14 01:26:37;;;;;;;75.13;37.63;;;;;;;;;;4995571;28;20073;-54
2022/03/14 01:29:04;;;;;;;67.03;36.20;;;;;;;;;;4995224;28;20026;-54
2022/03/14 01:31:31;;;;;;;67.57;37.35;;;;;;;;;;4995885;28;20096;-53
2022/03/14 01:33:57;;;;;;;84.88;39.40;;;;;;;;;;4995489;28;20030;-53
2022/03/14 01:36:24;;;;;;;82.85;42.85;;;;;;;;;;4995022;28;20049;-53
2022/03/14 01:38:50;;;;;;;81.32;41.90;;;;;;;;;;4995600;28;20037;-53
2022/03/14 01:41:17;;;;;;;83.00;41.70;;;;;;;;;;4995683;28;20109;-50
2022/03/14 01:43:43;;;;;;;88.10;45.92;;;;;;;;;;4994988;28;20101;-56
2022/03/14 01:46:10;;;;;;;94.63;47.83;;;;;;;;;;4995302;28;20022;-57
2022/03/14 01:48:37;;;;;;;79.72;40.38;;;;;;;;;;4995674;28;20045;-51
2022/03/14 01:51:03;;;;;;;85.50;42.63;;;;;;;;;;4994662;28;20026;-55
2022/03/14 01:53:30;;;;;;;75.40;37.35;;;;;;;;;;4995372;28;20490;-52
2022/03/14 01:55:56;;;;;;;42.25;21.25;;;;;;;;;;4995162;28;20030;-51
2022/03/14 01:58:23;;;;;;;47.85;22.17;;;;;;;;;;4995157;28;20069;-54
2022/03/14 02:00:50;;;;;;;34.95;19.15;;;;;;;;;;4995312;28;20038;-53
2022/03/14 02:03:16;;;;;;;33.03;17.35;;;;;;;;;;4995143;28;20129;-52
2022/03/14 02:05:45;;;;;;;36.85;18.90;;;;;;;;;;4994535;28;20025;-55
2022/03/14 02:08:12;;;;;;;53.33;27.27;;;;;;;;;;4994727;28;20030;-54
2022/03/14 02:10:41;;;;;;;48.40;26.70;;;;;;;;;;4994691;28;20053;-52
2022/03/14 02:13:08;;;;;;;72.78;35.05;;;;;;;;;;4994658;28;20419;-55
2022/03/14 02:15:35;;;;;;;68.35;33.55;;;;;;;;;;4994860;28;20030;-54
2022/03/14 02:18:01;;;;;;;82.82;38.15;;;;;;;;;;4994661;28;20030;-56
2022/03/14 02:20:27;;;;;;;120.88;53.22;;;;;;;;;;4994596;28;20467;-53
2022/03/14 02:22:54;;;;;;;111.50;53.90;;;;;;;;;;4994873;28;20019;-54
2022/03/14 02:25:20;;;;;;;121.75;53.53;;;;;;;;;;4994272;28;20088;-50
2022/03/14 02:27:46;;;;;;;109.53;53.28;;;;;;;;;;4995086;28;20067;-55
2022/03/14 02:30:12;;;;;;;110.00;53.25;;;;;;;;;;4994820;28;20018;-52
2022/03/14 02:32:41;;;;;;;110.18;51.42;;;;;;;;;;4994509;28;20117;-50
2022/03/14 02:35:08;;;;;;;102.88;47.60;;;;;;;;;;4994638;28;20387;-54
2022/03/14 02:37:34;;;;;;;91.43;45.47;;;;;;;;;;4994388;28;20589;-54
2022/03/14 02:40:00;;;;;;;96.32;46.83;;;;;;;;;;4994320;28;20033;-57
2022/03/14 02:42:26;;;;;;;109.57;51.35;;;;;;;;;;4994179;28;20022;-53
2022/03/14 02:44:53;;;;;;;109.82;51.45;;;;;;;;;;4994195;28;20034;-53
2022/03/14 02:47:20;;;;;;;99.63;47.67;;;;;;;;;;4994119;28;20065;-51
2022/03/14 02:49:46;;;;;;;94.63;42.58;;;;;;;;;;4994044;28;20109;-53
2022/03/14 02:52:12;;;;;;;73.70;35.25;;;;;;;;;;4994032;28;20537;-57
2022/03/14 02:54:40;;;;;;;66.45;34.10;;;;;;;;;;4994025;28;20026;-57
2022/03/14 02:57:09;;;;;;;73.55;36.47;;;;;;;;;;4994666;28;20045;-53
2022/03/14 02:59:35;;;;;;;80.00;38.70;;;;;;;;;;4993788;28;20368;-52
2022/03/14 03:02:02;;;;;;;79.15;38.78;;;;;;;;;;4994155;28;20064;-54
2022/03/14 03:04:28;;;;;;;76.05;36.85;;;;;;;;;;4994028;28;20022;-53
2022/03/14 03:06:54;;;;;;;77.90;37.10;;;;;;;;;;4994068;28;20035;-50
2022/03/14 03:09:21;;;;;;;72.18;36.42;;;;;;;;;;4993762;28;20033;-53
2022/03/14 03:11:47;;;;;;;93.95;41.97;;;;;;;;;;4993703;28;20494;-55
2022/03/14 03:14:13;;;;;;;93.30;46.45;;;;;;;;;;4993880;28;20026;-56
2022/03/14 03:16:42;;;;;;;105.00;47.72;;;;;;;;;;4994024;28;20026;-54
2022/03/14 03:19:08;;;;;;;122.85;54.13;;;;;;;;;;4993900;28;20026;-51
2022/03/14 03:21:39;;;;;;;120.45;51.50;;;;;;;;;;4993828;28;20034;-52
2022/03/14 03:24:08;;;;;;;114.82;50.85;;;;;;;;;;4994326;28;20069;-54
2022/03/14 03:26:38;;;;;;;116.25;48.95;;;;;;;;;;4994081;28;20022;-54
2022/03/14 03:29:04;;;;;;;122.20;54.30;;;;;;;;;;4997727;28;20026;-54
2022/03/14 03:31:30;;;;;;;101.90;47.78;;;;;;;;;;4997932;28;20080;-56
2022/03/14 03:33:57;;;;;;;101.05;46.50;;;;;;;;;;4997906;28;20026;-56
2022/03/14 03:36:23;;;;;;;98.88;46.63;;;;;;;;;;4997428;28;20031;-54
2022/03/14 03:38:49;;;;;;;106.68;46.50;;;;;;;;;;4997628;28;20471;-55
2022/03/14 03:41:15;;;;;;;96.60;43.42;;;;;;;;;;4997886;28;20026;-54
2022/03/14 03:43:41;;;;;;;97.82;45.38;;;;;;;;;;4997426;28;20031;-51
2022/03/14 03:46:07;;;;;;;83.30;39.42;;;;;;;;;;4997945;28;20061;-57
2022/03/14 03:48:34;;;;;;;80.03;40.33;;;;;;;;;;4997158;28;20022;-51
2022/03/14 03:51:01;;;;;;;74.32;37.22;;;;;;;;;;4997453;28;20030;-54
2022/03/14 03:53:27;;;;;;;72.95;36.45;;;;;;;;;;4998054;28;20113;-55
2022/03/14 03:55:53;;;;;;;71.90;36.85;;;;;;;;;;4997143;28;20026;-55
2022/03/14 03:58:19;;;;;;;80.65;39.05;;;;;;;;;;4997472;28;20022;-51
2022/03/14 04:00:45;;;;;;;84.32;39.92;;;;;;;;;;4997203;28;20033;-54
2022/03/14 04:03:12;;;;;;;76.32;34.95;;;;;;;;;;4997424;28;20061;-56
2022/03/14 04:05:39;;;;;;;57.08;27.65;;;;;;;;;;4997382;28;20030;-55
2022/03/14 04:08:10;;;;;;;60.70;29.73;;;;;;;;;;4997823;28;20375;-53
2022/03/14 04:10:37;;;;;;;57.95;28.30;;;;;;;;;;4997167;28;20027;-54
2022/03/14 04:13:06;;;;;;;52.47;28.00;;;;;;;;;;4997272;28;20026;-57
2022/03/14 04:15:41;;;;;;;58.47;27.98;;;;;;;;;;4996860;28;20379;-54
2022/03/14 04:18:07;;;;;;;54.92;27.95;;;;;;;;;;4997092;28;20041;-54
2022/03/14 04:20:34;;;;;;;85.72;41.35;;;;;;;;;;4997126;28;20028;-56
2022/03/14 04:23:01;;;;;;;98.07;45.65;;;;;;;;;;4997497;28;20033;-56
2022/03/14 04:25:27;;;;;;;84.63;43.67;;;;;;;;;;4996932;28;20035;-51
2022/03/14 04:27:53;;;;;;;76.75;38.42;;;;;;;;;;4997037;28;20022;-51
2022/03/14 04:30:19;;;;;;;71.85;33.40;;;;;;;;;;4997138;28;20029;-52
2022/03/14 04:32:45;;;;;;;76.80;38.28;;;;;;;;;;4996263;28;20038;-56
2022/03/14 04:35:12;;;;;;;72.32;37.72;;;;;;;;;;4996933;28;20029;-55
2022/03/14 04:37:38;;;;;;;65.97;35.10;;;;;;;;;;4995497;28;20022;-56
2022/03/14 04:40:04;;;;;;;79.35;37.55;;;;;;;;;;4996315;28;20030;-53
2022/03/14 04:42:31;;;;;;;77.68;39.67;;;;;;;;;;4996559;28;20029;-51
2022/03/14 04:44:57;;;;;;;82.00;43.03;;;;;;;;;;4996514;28;20058;-54
2022/03/14 04:47:23;;;;;;;79.40;41.90;;;;;;;;;;4996725;28;20463;-52
2022/03/14 04:49:49;;;;;;;88.47;43.63;;;;;;;;;;4996626;28;20035;-52
2022/03/14 04:52:15;;;;;;;104.50;49.00;;;;;;;;;;4995926;28;20482;-51
2022/03/14 04:54:45;;;;;;;106.97;54.53;;;;;;;;;;4996377;28;20105;-50
2022/03/14 04:57:11;;;;;;;108.65;55.30;;;;;;;;;;4996295;28;20050;-56
2022/03/14 04:59:37;;;;;;;120.57;60.53;;;;;;;;;;4996299;28;20085;-52
2022/03/14 05:02:03;;;;;;;113.40;59.78;;;;;;;;;;4996396;28;20037;-55
2022/03/14 05:04:29;;;;;;;124.20;62.78;;;;;;;;;;4996433;28;20034;-54
2022/03/14 05:06:56;;;;;;;116.00;59.08;;;;;;;;;;4995904;28;20050;-52
2022/03/14 05:09:22;;;;;;;95.35;48.30;;;;;;;;;;4996210;28;20050;-48
2022/03/14 05:11:48;;;;;;;81.32;41.58;;;;;;;;;;4995876;28;20542;-55
2022/03/14 05:14:15;;;;;;;48.05;24.42;;;;;;;;;;4995901;28;20026;-53
2022/03/14 05:16:42;;;;;;;60.53;27.50;;;;;;;;;;4995849;28;20479;-55
2022/03/14 05:19:08;;;;;;;64.78;31.70;;;;;;;;;;4996384;28;20040;-52
2022/03/14 05:21:34;;;;;;;63.97;31.50;;;;;;;;;;4995585;28;20034;-53
2022/03/14 05:24:01;;;;;;;61.13;32.58;;;;;;;;;;4995983;28;20108;-51
2022/03/14 05:26:27;;;;;;;73.30;40.35;;;;;;;;;;4995650;28;20060;-51
2022/03/14 05:28:53;;;;;;;72.90;37.75;;;;;;;;;;4995602;28;20077;-51
2022/03/14 05:31:20;;;;;;;73.35;39.25;;;;;;;;;;4993755;28;20441;-52
2022/03/14 05:33:46;;;;;;;72.43;38.53;;;;;;;;;;4995497;28;20093;-52
2022/03/14 05:36:12;;;;;;;70.43;33.05;;;;;;;;;;4995746;28;20026;-52
2022/03/14 05:38:39;;;;;;;56.45;30.23;;;;;;;;;;4995771;28;20030;-56
2022/03/14 05:41:05;;;;;;;66.68;35.05;;;;;;;;;;4995862;28;20030;-56
2022/03/14 05:43:36;;;;;;;67.32;35.10;;;;;;;;;;4995342;28;20023;-52
2022/03/14 05:46:02;;;;;;;;;;;;;;;;;;4995953;28;20030;-53
2022/03/14 05:48:28;;;;;;;55.75;27.60;;;;;;;;;;4995349;28;19905;-52
2022/03/14 05:50:55;;;;;;;75.28;36.60;;;;;;;;;;4994850;28;20037;-56
2022/03/14 05:53:21;;;;;;;78.28;42.45;;;;;;;;;;4995570;28;20038;-57
2022/03/14 05:55:47;;;;;;;90.00;45.38;;;;;;;;;;4994746;28;20101;-53
2022/03/14 05:58:13;;;;;;;98.53;46.15;;;;;;;;;;4995685;28;20030;-54
2022/03/14 06:00:39;;;;;;;111.80;52.42;;;;;;;;;;4995043;28;20106;-51
2022/03/14 06:03:06;;;;;;;97.10;47.42;;;;;;;;;;4994355;28;20033;-57
2022/03/14 06:05:32;;;;;;;97.95;51.10;;;;;;;;;;4994594;28;20077;-64
2022/03/14 06:07:58;;;;;;;94.40;49.72;;;;;;;;;;4995552;28;20029;-52
2022/03/14 06:10:25;;;;;;;126.60;68.30;;;;;;;;;;4995143;28;20502;-55
2022/03/14 06:12:51;;;;;;;134.77;66.70;;;;;;;;;;4993630;28;20053;-54
2022/03/14 06:15:18;;;;;;;125.78;60.92;;;;;;;;;;4994427;28;20077;-51
2022/03/14 06:17:45;;;;;;;110.10;55.50;;;;;;;;;;4993980;28;20130;-56
2022/03/14 06:20:12;;;;;;;108.30;54.70;;;;;;;;;;4994228;28;20451;-53
2022/03/14 06:22:42;;;;;;;108.90;56.65;;;;;;;;;;4994194;28;20045;-54
2022/03/14 06:25:09;;;;;;;101.72;52.53;;;;;;;;;;4994583;28;20031;-54
2022/03/14 06:27:35;;;;;;;132.63;78.55;;;;;;;;;;4994867;28;20065;-57
2022/03/14 06:30:02;;;;;;;124.65;64.32;;;;;;;;;;4994604;28;20026;-55
2022/03/14 06:32:34;;;;;;;119.38;59.75;;;;;;;;;;4994837;28;20060;-54
2022/03/14 06:35:00;;;;;;;82.63;43.58;;;;;;;;;;4994933;28;20034;-52
2022/03/14 06:37:26;;;;;;;84.72;43.65;;;;;;;;;;4994118;28;20030;-56
2022/03/14 06:39:53;;;;;;;85.63;44.25;;;;;;;;;;4994954;28;20066;-53
2022/03/14 06:42:20;;;;;;;83.28;43.50;;;;;;;;;;4994651;28;20072;-53
2022/03/14 06:44:49;;;;;;;98.93;52.55;;;;;;;;;;4994254;28;20038;-52
2022/03/14 06:47:18;;;;;;;85.07;46.42;;;;;;;;;;4994500;28;20027;-58
2022/03/14 06:49:45;;;;;;;96.97;47.30;;;;;;;;;;4994294;28;20026;-55
2022/03/14 06:52:12;;;;;;;81.85;43.20;;;;;;;;;;4994124;28;20069;-54
2022/03/14 06:54:38;;;;;;;81.22;44.03;;;;;;;;;;4994202;28;20030;-52
2022/03/14 06:57:08;;;;;;;88.35;45.60;;;;;;;;;;4994733;28;20054;-56
2022/03/14 06:59:35;;;;;;;87.15;45.45;;;;;;;;;;4994159;28;20446;-55
2022/03/14 07:02:01;;;;;;;100.60;50.72;;;;;;;;;;4993217;28;20037;-55
2022/03/14 07:04:27;;;;;;;83.97;43.83;;;;;;;;;;4993769;28;20022;-55
2022/03/14 07:06:53;;;;;;;101.75;49.00;;;;;;;;;;4993168;28;20023;-56
2022/03/14 07:09:20;;;;;;;99.70;48.28;;;;;;;;;;4992525;28;20014;-51
2022/03/14 07:11:51;;;;;;;92.28;45.50;;;;;;;;;;4993207;28;20117;-53
2022/03/14 07:14:18;;;;;;;77.22;42.17;;;;;;;;;;4993865;28;20096;-52
2022/03/14 07:16:45;;;;;;;74.97;40.85;;;;;;;;;;4993936;28;20031;-57
2022/03/14 07:19:11;;;;;;;65.68;37.42;;;;;;;;;;4994210;28;20405;-52
2022/03/14 07:21:38;;;;;;;62.47;34.17;;;;;;;;;;4993915;28;20073;-55
2022/03/14 07:24:04;;;;;;;58.38;32.92;;;;;;;;;;4994716;28;20455;-53
2022/03/14 07:26:31;;;;;;;55.70;30.95;;;;;;;;;;4993799;28;20022;-55
2022/03/14 07:28:57;;;;;;;59.92;31.27;;;;;;;;;;4993907;28;20029;-56
2022/03/14 07:31:24;;;;;;;61.60;31.27;;;;;;;;;;4994332;28;20038;-55
2022/03/14 07:33:50;;;;;;;69.75;37.55;;;;;;;;;;4993778;28;20035;-56
2022/03/14 07:36:17;;;;;;;72.80;39.55;;;;;;;;;;4994405;28;20022;-56
2022/03/14 07:38:43;;;;;;;57.83;33.13;;;;;;;;;;4994063;28;20058;-52
2022/03/14 07:41:10;;;;;;;61.20;32.95;;;;;;;;;;4993782;28;20065;-55
2022/03/14 07:43:36;;;;;;;59.15;32.67;;;;;;;;;;4994010;28;20069;-56
2022/03/14 07:46:03;;;;;;;61.20;33.95;;;;;;;;;;4994043;28;20374;-54
2022/03/14 07:48:29;;;;;;;67.95;35.25;;;;;;;;;;4993408;28;20467;-53
2022/03/14 07:50:56;;;;;;;62.28;35.15;;;;;;;;;;4994190;28;20383;-54
2022/03/14 07:53:22;;;;;;;66.40;35.00;;;;;;;;;;4993927;28;20022;-54
2022/03/14 07:55:48;;;;;;;63.42;36.67;;;;;;;;;;4993347;28;20026;-53
2022/03/14 07:58:15;;;;;;;72.20;39.42;;;;;;;;;;4994272;28;20034;-52
2022/03/14 08:00:41;;;;;;;71.72;39.45;;;;;;;;;;4993310;28;20018;-53
2022/03/14 08:03:07;;;;;;;77.93;41.17;;;;;;;;;;4993859;28;20018;-53
2022/03/14 08:05:33;;;;;;;72.97;39.00;;;;;;;;;;4993778;28;20027;-52
2022/03/14 08:08:02;;;;;;;70.82;40.15;;;;;;;;;;4993193;28;20498;-52
2022/03/14 08:10:29;;;;;;;68.97;36.47;;;;;;;;;;4993409;28;20479;-53
2022/03/14 08:12:56;;;;;;;66.47;34.50;;;;;;;;;;4995055;28;20096;-52
2022/03/14 08:15:23;;;;;;;60.35;35.75;;;;;;;;;;4997021;28;20025;-54
2022/03/14 08:17:50;;;;;;;60.53;33.35;;;;;;;;;;4997520;28;20023;-53
2022/03/14 08:20:17;;;;;;;66.07;37.22;;;;;;;;;;4997234;28;20035;-50
2022/03/14 08:22:43;;;;;;;72.65;40.55;;;;;;;;;;4996786;28;20077;-52
2022/03/14 08:25:11;;;;;;;87.25;39.97;;;;;;;;;;4996913;28;20025;-50
2022/03/14 08:27:37;;;;;;;72.95;37.08;;;;;;;;;;4996904;28;20102;-52
2022/03/14 08:30:04;;;;;;;70.72;38.40;;;;;;;;;;4996814;28;20022;-55
2022/03/14 08:32:32;;;;;;;60.78;32.33;;;;;;;;;;4996863;28;20085;-52
2022/03/14 08:34:58;;;;;;;58.92;31.98;;;;;;;;;;4997114;28;20038;-52
2022/03/14 08:37:24;;;;;;;53.53;29.33;;;;;;;;;;4996680;28;20363;-51
2022/03/14 08:39:50;;;;;;;52.70;30.25;;;;;;;;;;4996832;28;20081;-52
2022/03/14 08:42:17;;;;;;;58.53;29.50;;;;;;;;;;4996877;28;20076;-55
2022/03/14 08:44:43;;;;;;;52.35;29.60;;;;;;;;;;4996260;28;20022;-57
2022/03/14 08:47:09;;;;;;;41.45;23.73;;;;;;;;;;4993577;28;20058;-55
2022/03/14 08:49:37;;;;;;;48.75;26.42;;;;;;;;;;4995978;28;20073;-56
2022/03/14 08:52:04;;;;;;;47.75;27.42;;;;;;;;;;4996556;28;20034;-56
2022/03/14 08:54:30;;;;;;;48.05;23.17;;;;;;;;;;4996408;28;20022;-52
2022/03/14 08:56:56;;;;;;;42.85;24.77;;;;;;;;;;4995721;28;20057;-51
2022/03/14 08:59:23;;;;;;;40.38;23.08;;;;;;;;;;4996327;28;20434;-50
2022/03/14 09:01:50;;;;;;;37.65;20.70;;;;;;;;;;4996258;28;20023;-54
2022/03/14 09:04:17;;;;;;;36.60;21.70;;;;;;;;;;4996133;28;20072;-51
2022/03/14 09:06:43;;;;;;;30.13;18.08;;;;;;;;;;4996109;28;20022;-52
2022/03/14 09:09:09;;;;;;;35.28;19.60;;;;;;;;;;4995997;28;20026;-51
2022/03/14 09:11:36;;;;;;;32.35;18.00;;;;;;;;;;4995883;28;20038;-53
2022/03/14 09:14:02;;;;;;;28.05;16.40;;;;;;;;;;4996725;28;20046;-50
2022/03/14 09:16:29;;;;;;;32.90;17.52;;;;;;;;;;4996163;28;20018;-55
2022/03/14 09:18:55;;;;;;;25.13;15.45;;;;;;;;;;4995741;28;20124;-52
2022/03/14 09:21:21;;;;;;;29.23;15.95;;;;;;;;;;4996064;28;20022;-53
2022/03/14 09:23:48;;;;;;;27.05;16.85;;;;;;;;;;4995802;28;20027;-55
2022/03/14 09:26:14;;;;;;;30.42;19.33;;;;;;;;;;4993559;28;20277;-53
2022/03/14 09:28:44;;;;;;;31.45;19.23;;;;;;;;;;4996005;28;20022;-52
2022/03/14 09:31:11;;;;;;;32.42;17.77;;;;;;;;;;4995532;28;20026;-56
2022/03/14 09:33:37;;;;;;;28.67;17.23;;;;;;;;;;4995511;28;20038;-53
2022/03/14 09:36:04;;;;;;;26.42;14.98;;;;;;;;;;4995634;28;20500;-54
2022/03/14 09:38:30;;;;;;;26.40;15.20;;;;;;;;;;4995612;28;20023;-52
2022/03/14 09:40:58;;;;;;;19.73;12.68;;;;;;;;;;4995769;28;20114;-53
2022/03/14 09:43:25;;;;;;;25.35;12.52;;;;;;;;;;4995790;28;20437;-54
2022/03/14 09:45:52;;;;;;;19.45;10.32;;;;;;;;;;4995347;28;20026;-54
2022/03/14 09:48:18;;;;;;;19.88;11.32;;;;;;;;;;4995683;28;20024;-54
2022/03/14 09:50:45;;;;;;;18.73;11.18;;;;;;;;;;4995994;28;20366;-54
2022/03/14 09:53:15;;;;;;;16.83;10.88;;;;;;;;;;4994975;28;20057;-54
2022/03/14 09:55:46;;;;;;;18.15;11.43;;;;;;;;;;4994717;28;20026;-55
2022/03/14 09:58:19;;;;;;;18.35;11.32;;;;;;;;;;4995422;28;20037;-52
2022/03/14 10:00:46;;;;;;;20.30;12.57;;;;;;;;;;4995108;28;20081;-54
2022/03/14 10:03:13;;;;;;;16.13;10.73;;;;;;;;;;4995800;28;20102;-54
2022/03/14 10:05:40;;;;;;;16.45;10.23;;;;;;;;;;4995300;28;20041;-57
2022/03/14 10:08:07;;;;;;;19.08;9.95;;;;;;;;;;4995056;28;20026;-55
2022/03/14 10:10:37;;;;;;;19.50;10.98;;;;;;;;;;4995141;28;20061;-54
2022/03/14 10:13:05;;;;;;;18.48;11.20;;;;;;;;;;4995196;28;20042;-52
2022/03/14 10:15:35;;;;;;;17.23;10.50;;;;;;;;;;4994776;28;20475;-53
2022/03/14 10:18:09;;;;;;;19.13;11.77;;;;;;;;;;4994389;28;20034;-53
2022/03/14 10:20:35;;;;;;;18.45;11.57;;;;;;;;;;4993818;28;20045;-52
2022/03/14 10:23:01;;;;;;;20.27;11.52;;;;;;;;;;4994796;28;20040;-51
2022/03/14 10:25:29;;;;;;;17.08;10.52;;;;;;;;;;4994081;28;20475;-50
2022/03/14 10:27:57;;;;;;;15.25;9.60;;;;;;;;;;4993870;28;20030;-50
2022/03/14 10:30:33;;;;;;;21.15;13.25;;;;;;;;;;4994701;28;20022;-57
2022/03/14 10:33:12;;;;;;;14.07;9.93;;;;;;;;;;4994427;28;20085;-54
2022/03/14 10:35:39;;;;;;;18.20;11.73;;;;;;;;;;4993991;28;20084;-53
2022/03/14 10:38:06;;;;;;;16.83;11.20;;;;;;;;;;4994721;28;20375;-52
2022/03/14 10:40:36;;;;;;;14.55;10.55;;;;;;;;;;4994907;28;20030;-52
2022/03/14 10:43:06;;;;;;;16.58;10.93;;;;;;;;;;4994344;28;20022;-52
2022/03/14 10:45:32;;;;;;;18.67;10.23;;;;;;;;;;4994599;28;20463;-54
2022/03/14 10:48:02;;;;;;;15.93;11.20;;;;;;;;;;4994577;28;20418;-56
2022/03/14 10:50:33;;;;;;;15.90;10.18;;;;;;;;;;4994274;28;20015;-55
2022/03/14 10:53:02;;;;;;;16.60;10.63;;;;;;;;;;4994726;28;20062;-51
2022/03/14 10:55:35;;;;;;;15.35;9.77;;;;;;;;;;4994233;28;20022;-50
2022/03/14 10:58:08;;;;;;;17.48;10.88;;;;;;;;;;4994918;28;20133;-56
2022/03/14 11:00:46;;;;;;;20.65;11.40;;;;;;;;;;4994473;28;20483;-56
2022/03/14 11:03:12;;;;;;;50.70;25.58;;;;;;;;;;4994097;28;20025;-55
2022/03/14 11:05:45;;;;;;;19.40;10.40;;;;;;;;;;4994428;28;20104;-54
2022/03/14 11:08:27;;;;;;;18.90;12.32;;;;;;;;;;4994289;28;20030;-53
2022/03/14 11:10:54;;;;;;;12.60;8.38;;;;;;;;;;4994099;28;20115;-54
2022/03/14 11:13:20;;;;;;;15.38;10.85;;;;;;;;;;4994193;28;20022;-55
2022/03/14 11:15:46;;;;;;;12.30;9.10;;;;;;;;;;4992677;28;20026;-53
2022/03/14 11:18:13;;;;;;;13.90;10.27;;;;;;;;;;4992823;28;20069;-54
2022/03/14 11:20:40;;;;;;;16.08;11.93;;;;;;;;;;4993623;28;20376;-56
2022/03/14 11:23:06;;;;;;;16.67;11.82;;;;;;;;;;4994246;28;20061;-51
2022/03/14 11:25:33;;;;;;;12.52;8.38;;;;;;;;;;4993428;28;20222;-55
2022/03/14 11:28:00;;;;;;;10.90;8.13;;;;;;;;;;4993883;28;20096;-55
2022/03/14 11:30:27;;;;;;;12.10;8.48;;;;;;;;;;4993590;28;20554;-55
2022/03/14 11:32:53;;;;;;;13.48;10.00;;;;;;;;;;4994024;28;20190;-55
2022/03/14 11:35:20;;;;;;;11.77;9.43;;;;;;;;;;4994467;28;20422;-54
2022/03/14 11:37:47;;;;;;;14.20;8.98;;;;;;;;;;4992860;28;20040;-56
2022/03/14 11:40:13;;;;;;;12.80;8.13;;;;;;;;;;4993772;28;20019;-53
2022/03/14 11:42:39;;;;;;;14.88;8.43;;;;;;;;;;4993896;28;20023;-57
2022/03/14 11:45:09;;;;;;;11.43;7.70;;;;;;;;;;4993105;28;20023;-55
2022/03/14 11:47:36;;;;;;;10.27;8.40;;;;;;;;;;4993920;28;20033;-55
2022/03/14 11:50:03;;;;;;;10.65;7.07;;;;;;;;;;4997749;28;20073;-56
2022/03/14 11:52:40;;;;;;;12.18;8.90;;;;;;;;;;4997293;28;20467;-58
2022/03/14 11:55:17;;;;;;;10.50;7.30;;;;;;;;;;4996948;28;20035;-54
2022/03/14 11:57:44;;;;;;;12.90;8.23;;;;;;;;;;4996300;28;20456;-53
2022/03/14 12:00:27;;;;;;;12.00;7.28;;;;;;;;;;4996097;28;20081;-57
2022/03/14 12:02:54;;;;;;;17.40;9.80;;;;;;;;;;4997314;28;20034;-57
2022/03/14 12:05:24;;;;;;;30.35;15.55;;;;;;;;;;4997045;28;20022;-57
2022/03/14 12:07:51;;;;;;;9.77;7.93;;;;;;;;;;4997427;28;20479;-58
2022/03/14 12:10:26;;;;;;;11.88;7.53;;;;;;;;;;4997076;28;20479;-57
2022/03/14 12:12:55;;;;;;;10.45;7.75;;;;;;;;;;4996768;28;20026;-59
2022/03/14 12:15:41;;;;;;;11.70;7.45;;;;;;;;;;4997703;28;20022;-59
2022/03/14 12:18:28;;;;;;;10.73;7.68;;;;;;;;;;4997346;28;20054;-59
2022/03/14 12:21:05;;;;;;;12.32;7.97;;;;;;;;;;4996841;28;20463;-57
2022/03/14 12:23:32;;;;;;;8.65;6.65;;;;;;;;;;4997199;28;20502;-56
2022/03/14 12:25:59;;;;;;;9.13;6.38;;;;;;;;;;4997450;28;20034;-59
2022/03/14 12:28:27;;;;;;;12.85;7.30;;;;;;;;;;4996886;28;20072;-59
2022/03/14 12:30:57;;;;;;;10.38;6.63;;;;;;;;;;4997114;28;20022;-59
2022/03/14 12:33:23;;;;;;;;;;;;;;;;;;4997056;28;20077;-53
2022/03/14 12:35:49;;;;;;;7.75;5.65;;;;;;;;;;4997204;28;19906;-58
2022/03/14 12:38:21;;;;;;;8.77;6.65;;;;;;;;;;4995685;28;20018;-56
2022/03/14 12:40:48;;;;;;;8.82;6.93;;;;;;;;;;4997225;28;20031;-60
2022/03/14 12:43:31;;;;;;;10.85;8.45;;;;;;;;;;4996508;28;20030;-57
2022/03/14 12:45:59;;;;;;;7.70;6.32;;;;;;;;;;4996767;28;20490;-60
2022/03/14 12:48:33;;;;;;;8.63;6.60;;;;;;;;;;4996763;28;20057;-59
2022/03/14 12:51:02;;;;;;;10.60;6.68;;;;;;;;;;4996678;28;20018;-60
2022/03/14 12:53:31;;;;;;;6.93;5.68;;;;;;;;;;4996425;28;20015;-59
2022/03/14 12:56:01;;;;;;;10.77;6.82;;;;;;;;;;4995938;28;20022;-59
2022/03/14 12:58:29;;;;;;;10.90;7.65;;;;;;;;;;4996485;28;20033;-59
2022/03/14 13:00:57;;;;;;;11.30;7.85;;;;;;;;;;4996744;28;20033;-59
2022/03/14 13:03:27;;;;;;;9.05;6.78;;;;;;;;;;4996112;28;20033;-59
2022/03/14 13:05:53;;;;;;;10.48;6.25;;;;;;;;;;4996971;28;20105;-56
2022/03/14 13:08:20;;;;;;;8.68;6.80;;;;;;;;;;4996348;28;20026;-58
2022/03/14 13:10:47;;;;;;;11.18;7.45;;;;;;;;;;4995882;28;20113;-57
2022/03/14 13:13:22;;;;;;;9.23;6.53;;;;;;;;;;4995884;28;20456;-57
2022/03/14 13:16:01;;;;;;;10.80;7.22;;;;;;;;;;4996077;28;20383;-60
2022/03/14 13:18:27;;;;;;;9.15;6.50;;;;;;;;;;4995722;28;20029;-58
2022/03/14 13:20:53;;;;;;;10.20;6.95;;;;;;;;;;4995890;28;20080;-60
2022/03/14 13:23:21;;;;;;;10.15;6.95;;;;;;;;;;4995847;28;20044;-59
2022/03/14 13:25:48;;;;;;;10.98;5.03;;;;;;;;;;4996130;28;20097;-59
2022/03/14 13:28:36;;;;;;;8.88;7.03;;;;;;;;;;4996017;28;20081;-59
2022/03/14 13:31:03;;;;;;;8.70;6.18;;;;;;;;;;4995967;28;20037;-57
2022/03/14 13:33:33;;;;;;;13.57;8.15;;;;;;;;;;4995911;28;20021;-58
2022/03/14 13:36:00;;;;;;;9.43;6.97;;;;;;;;;;4995791;28;20109;-59
2022/03/14 13:38:29;;;;;;;9.68;6.68;;;;;;;;;;4995556;28;20105;-59
2022/03/14 13:40:57;;;;;;;7.40;5.43;;;;;;;;;;4995373;28;20505;-59
2022/03/14 13:43:23;;;;;;;7.78;5.57;;;;;;;;;;4995286;28;20031;-60
2022/03/14 13:45:50;;;;;;;10.55;7.85;;;;;;;;;;4994633;28;20018;-57
2022/03/14 13:48:22;;;;;;;7.40;6.28;;;;;;;;;;4995160;28;20023;-59
2022/03/14 13:50:49;;;;;;;10.30;6.40;;;;;;;;;;4995405;28;20031;-58
2022/03/14 13:53:25;;;;;;;11.70;9.88;;;;;;;;;;4995330;28;20022;-59
2022/03/14 13:55:54;;;;;;;10.00;6.90;;;;;;;;;;4994884;28;20420;-59
2022/03/14 13:58:25;;;;;;;8.27;5.60;;;;;;;;;;4994973;28;20100;-58
2022/03/14 14:00:54;;;;;;;11.50;8.90;;;;;;;;;;4995602;28;20069;-59
2022/03/14 14:03:24;;;;;;;5.57;4.35;;;;;;;;;;4995117;28;20446;-58
2022/03/14 14:05:53;;;;;;;8.07;4.93;;;;;;;;;;4995162;28;20090;-55
2022/03/14 14:08:34;;;;;;;7.25;4.85;;;;;;;;;;4995035;28;20026;-53
2022/03/14 14:11:00;;;;;;;;;;;;;;;;;;4995203;28;20038;-54
2022/03/14 14:13:26;;;;;;;7.63;4.57;;;;;;;;;;4994918;28;19996;-55
2022/03/14 14:15:53;;;;;;;7.03;4.75;;;;;;;;;;4995478;28;20113;-55
2022/03/14 14:18:21;;;;;;;11.80;4.78;;;;;;;;;;4995342;28;20077;-55
2022/03/14 14:20:48;;;;;;;9.65;6.25;;;;;;;;;;4994807;28;20056;-58
2022/03/14 14:23:15;;;;;;;13.13;7.50;;;;;;;;;;4994995;28;20035;-55